createdAt,value
2022-12-16T00:01:35.770Z,25.30
2022-12-16T00:03:58.290Z,25.67
2022-12-16T00:06:19.714Z,25.83
2022-12-16T00:08:41.258Z,28.47
2022-12-16T00:11:04.031Z,25.63
2022-12-16T00:13:25.283Z,25.90
2022-12-16T00:15:47.640Z,25.03
2022-12-16T00:18:08.951Z,27.40
2022-12-16T00:20:30.242Z,26.23
2022-12-16T00:22:52.572Z,25.67
2022-12-16T00:25:14.207Z,25.13
2022-12-16T00:27:36.668Z,25.20
2022-12-16T00:29:57.849Z,24.87
2022-12-16T00:32:19.217Z,25.13
2022-12-16T00:34:40.164Z,24.83
2022-12-16T00:37:01.389Z,25.37
2022-12-16T00:39:22.768Z,25.07
2022-12-16T00:41:44.306Z,26.67
2022-12-16T00:44:06.810Z,26.07
2022-12-16T00:46:28.295Z,25.87
2022-12-16T00:48:49.658Z,26.33
2022-12-16T00:51:10.903Z,26.60
2022-12-16T00:53:32.466Z,27.03
2022-12-16T00:56:01.974Z,25.97
2022-12-16T00:58:22.960Z,27.37
2022-12-16T01:00:45.612Z,30.53
2022-12-16T01:03:07.061Z,28.33
2022-12-16T01:05:28.565Z,29.53
2022-12-16T01:07:49.750Z,29.53
2022-12-16T01:10:13.546Z,28.13
2022-12-16T01:12:37.078Z,30.77
2022-12-16T01:14:58.722Z,31.10
2022-12-16T01:17:21.034Z,30.20
2022-12-16T01:19:42.219Z,28.20
2022-12-16T01:22:04.211Z,30.00
2022-12-16T01:24:25.210Z,30.27
2022-12-16T01:26:46.479Z,30.23
2022-12-16T01:29:07.995Z,32.10
2022-12-16T01:31:29.304Z,31.20
2022-12-16T01:33:51.826Z,31.13
2022-12-16T01:36:13.562Z,30.43
2022-12-16T01:38:34.563Z,29.70
2022-12-16T01:40:55.978Z,31.77
2022-12-16T01:43:18.027Z,30.73
2022-12-16T01:45:39.482Z,31.47
2022-12-16T01:48:02.158Z,32.57
2022-12-16T01:50:24.933Z,31.27
2022-12-16T01:52:47.060Z,33.13
2022-12-16T01:55:10.350Z,33.17
2022-12-16T01:57:33.535Z,33.63
2022-12-16T01:59:55.165Z,33.63
2022-12-16T02:02:16.790Z,33.13
2022-12-16T02:04:58.188Z,33.07
2022-12-16T02:07:20.551Z,33.27
2022-12-16T02:09:41.641Z,34.40
2022-12-16T02:12:15.961Z,33.13
2022-12-16T02:14:46.185Z,32.70
2022-12-16T02:17:12.641Z,32.73
2022-12-16T02:19:54.964Z,32.33
2022-12-16T02:22:24.529Z,31.33
2022-12-16T02:25:04.250Z,31.23
2022-12-16T02:27:52.232Z,31.47
2022-12-16T02:30:26.368Z,30.80
2022-12-16T02:32:53.543Z,29.77
2022-12-16T02:35:19.418Z,31.17
2022-12-16T02:37:43.794Z,31.93
2022-12-16T02:40:07.749Z,32.40
2022-12-16T02:42:31.507Z,31.40
2022-12-16T02:44:56.039Z,32.77
2022-12-16T02:47:18.729Z,32.70
2022-12-16T02:49:45.540Z,33.97
2022-12-16T02:52:07.047Z,32.40
2022-12-16T02:54:28.971Z,33.23
2022-12-16T02:56:53.429Z,31.97
2022-12-16T02:59:18.761Z,32.60
2022-12-16T03:01:45.352Z,33.97
2022-12-16T03:04:10.554Z,33.40
2022-12-16T03:06:32.979Z,32.33
2022-12-16T03:08:57.390Z,32.07
2022-12-16T03:11:18.804Z,31.17
2022-12-16T03:13:42.779Z,30.30
2022-12-16T03:16:04.792Z,30.40
2022-12-16T03:18:26.041Z,30.77
2022-12-16T03:20:51.353Z,29.77
2022-12-16T03:23:15.160Z,31.40
2022-12-16T03:25:38.270Z,31.00
2022-12-16T03:28:04.261Z,31.73
2022-12-16T03:30:28.096Z,31.23
2022-12-16T03:32:52.283Z,32.50
2022-12-16T03:35:15.074Z,32.43
2022-12-16T03:37:38.272Z,31.87
2022-12-16T03:40:01.688Z,31.17
2022-12-16T03:42:23.894Z,32.33
2022-12-16T03:44:46.075Z,31.37
2022-12-16T03:47:07.635Z,31.20
2022-12-16T03:49:28.937Z,29.63
2022-12-16T03:51:50.110Z,30.87
2022-12-16T03:54:12.764Z,31.53
2022-12-16T03:56:34.040Z,32.23
2022-12-16T03:58:55.482Z,29.83
2022-12-16T04:01:16.848Z,32.33
2022-12-16T04:03:38.444Z,32.83
2022-12-16T04:05:59.823Z,35.43
2022-12-16T04:08:21.143Z,36.70
2022-12-16T04:11:01.697Z,37.30
2022-12-16T04:13:40.392Z,36.50
2022-12-16T04:16:19.166Z,38.27
2022-12-16T04:19:00.781Z,35.47
2022-12-16T04:21:39.510Z,36.83
2022-12-16T04:24:18.607Z,36.17
2022-12-16T04:26:55.012Z,36.50
2022-12-16T04:29:16.027Z,34.80
2022-12-16T04:31:37.273Z,35.67
2022-12-16T04:34:16.141Z,36.47
2022-12-16T04:36:51.289Z,34.30
2022-12-16T04:39:29.960Z,35.37
2022-12-16T04:42:11.699Z,34.20
2022-12-16T04:44:59.098Z,35.40
2022-12-16T04:47:40.018Z,31.83
2022-12-16T04:50:18.998Z,35.33
2022-12-16T04:52:57.097Z,34.67
2022-12-16T04:55:36.002Z,34.00
2022-12-16T04:58:16.610Z,34.07
2022-12-16T05:00:55.761Z,33.13
2022-12-16T05:03:35.389Z,33.70
2022-12-16T05:06:14.297Z,32.80
2022-12-16T05:08:53.195Z,33.70
2022-12-16T05:11:32.127Z,35.10
2022-12-16T05:14:12.345Z,33.13
2022-12-16T05:16:51.423Z,32.17
2022-12-16T05:19:31.864Z,32.50
2022-12-16T05:22:12.923Z,33.77
2022-12-16T05:24:53.183Z,31.93
2022-12-16T05:27:32.120Z,31.80
2022-12-16T05:30:12.362Z,32.97
2022-12-16T05:32:51.270Z,31.00
2022-12-16T05:35:31.268Z,31.63
2022-12-16T05:38:10.200Z,31.67
2022-12-16T05:40:57.335Z,30.93
2022-12-16T05:43:36.516Z,30.53
2022-12-16T05:46:31.378Z,31.23
2022-12-16T05:49:10.479Z,30.20
2022-12-16T05:51:49.134Z,29.87
2022-12-16T05:54:27.856Z,29.17
2022-12-16T05:57:06.772Z,27.70
2022-12-16T05:59:45.498Z,27.83
2022-12-16T06:02:25.847Z,29.27
2022-12-16T06:05:04.571Z,28.07
2022-12-16T06:07:43.292Z,29.07
2022-12-16T06:10:22.187Z,29.30
2022-12-16T06:13:04.658Z,28.57
2022-12-16T06:15:43.718Z,27.80
2022-12-16T06:18:24.229Z,29.33
2022-12-16T06:21:03.060Z,29.07
2022-12-16T06:23:41.883Z,27.50
2022-12-16T06:26:20.783Z,29.93
2022-12-16T06:28:59.600Z,28.43
2022-12-16T06:31:38.519Z,28.13
2022-12-16T06:34:18.635Z,29.17
2022-12-16T06:36:57.447Z,31.00
2022-12-16T06:39:36.426Z,34.27
2022-12-16T06:42:15.372Z,28.83
2022-12-16T06:44:54.187Z,34.27
2022-12-16T06:47:33.111Z,27.80
2022-12-16T06:50:13.127Z,28.07
2022-12-16T06:52:52.234Z,28.00
2022-12-16T06:55:31.149Z,28.73
2022-12-16T06:58:14.917Z,30.23
2022-12-16T07:00:53.773Z,28.07
2022-12-16T07:03:36.121Z,27.37
2022-12-16T07:06:16.305Z,26.50
2022-12-16T07:08:55.152Z,27.20
2022-12-16T07:11:34.135Z,27.77
2022-12-16T07:14:12.947Z,26.60
2022-12-16T07:16:51.979Z,25.40
2022-12-16T07:19:30.844Z,26.03
2022-12-16T07:22:11.062Z,26.93
2022-12-16T07:24:49.819Z,26.60
2022-12-16T07:27:28.585Z,25.57
2022-12-16T07:30:07.347Z,24.97
2022-12-16T07:32:46.406Z,25.40
2022-12-16T07:35:25.317Z,35.60
2022-12-16T07:38:05.537Z,27.30
2022-12-16T07:40:44.289Z,26.53
2022-12-16T07:43:23.412Z,25.17
2022-12-16T07:46:02.726Z,22.87
2022-12-16T07:48:41.443Z,22.77
2022-12-16T07:51:20.391Z,23.30
2022-12-16T07:54:08.962Z,22.67
2022-12-16T07:56:47.660Z,22.67
2022-12-16T07:59:26.749Z,21.67
2022-12-16T08:02:05.623Z,21.73
2022-12-16T08:04:44.380Z,20.90
2022-12-16T08:07:23.021Z,21.43
2022-12-16T08:10:03.741Z,23.03
2022-12-16T08:12:42.170Z,22.70
2022-12-16T08:15:21.022Z,22.03
2022-12-16T08:18:00.576Z,21.83
2022-12-16T08:20:39.931Z,22.07
2022-12-16T08:23:18.936Z,21.47
2022-12-16T08:25:59.186Z,22.07
2022-12-16T08:28:37.959Z,21.87
2022-12-16T08:31:16.792Z,20.63
2022-12-16T08:33:55.800Z,20.10
2022-12-16T08:36:34.810Z,19.17
2022-12-16T08:39:13.720Z,18.27
2022-12-16T08:41:53.795Z,19.97
2022-12-16T08:44:32.525Z,27.87
2022-12-16T08:47:11.352Z,18.50
2022-12-16T08:49:52.529Z,19.60
2022-12-16T08:52:33.388Z,21.33
2022-12-16T08:55:12.267Z,18.97
2022-12-16T08:57:52.466Z,19.90
2022-12-16T09:00:31.411Z,18.20
2022-12-16T09:03:11.560Z,19.53
2022-12-16T09:05:50.963Z,17.23
2022-12-16T09:08:29.732Z,19.57
2022-12-16T09:11:08.742Z,17.20
2022-12-16T09:13:45.355Z,17.57
2022-12-16T09:16:24.519Z,17.57
2022-12-16T09:19:03.354Z,16.97
2022-12-16T09:21:41.865Z,18.30
2022-12-16T09:24:20.654Z,18.30
2022-12-16T09:26:59.476Z,18.80
2022-12-16T09:29:43.586Z,18.43
2022-12-16T09:32:23.650Z,18.53
2022-12-16T09:35:02.018Z,20.03
2022-12-16T09:37:41.032Z,17.80
2022-12-16T09:40:20.138Z,15.93
2022-12-16T09:43:04.272Z,106.20
2022-12-16T09:45:49.077Z,21.77
2022-12-16T09:48:31.972Z,16.17
2022-12-16T09:51:12.270Z,16.53
2022-12-16T09:53:53.196Z,16.90
2022-12-16T09:56:34.163Z,17.73
2022-12-16T09:59:16.424Z,16.80
2022-12-16T10:01:57.198Z,16.13
2022-12-16T10:04:35.991Z,14.80
2022-12-16T10:07:17.005Z,15.70
2022-12-16T10:10:00.354Z,16.57
2022-12-16T10:12:43.580Z,15.37
2022-12-16T10:15:30.368Z,14.80
2022-12-16T10:18:10.786Z,15.97
2022-12-16T10:20:54.609Z,15.60
2022-12-16T10:23:37.418Z,13.97
2022-12-16T10:26:18.387Z,13.30
2022-12-16T10:29:01.154Z,13.97
2022-12-16T10:31:48.228Z,15.23
2022-12-16T10:34:30.678Z,13.87
2022-12-16T10:37:14.177Z,14.03
2022-12-16T10:39:56.518Z,14.70
2022-12-16T10:42:38.466Z,13.67
2022-12-16T10:45:19.905Z,14.63
2022-12-16T10:47:58.782Z,14.37
2022-12-16T10:50:39.176Z,14.20
2022-12-16T10:53:19.643Z,14.30
2022-12-16T10:56:04.039Z,13.87
2022-12-16T10:58:44.645Z,12.77
2022-12-16T11:01:38.393Z,12.90
2022-12-16T11:04:17.272Z,14.43
2022-12-16T11:07:13.328Z,14.37
2022-12-16T11:09:52.545Z,15.03
2022-12-16T11:12:43.012Z,14.33
2022-12-16T11:15:41.390Z,13.23
2022-12-16T11:18:21.583Z,14.70
2022-12-16T11:21:04.120Z,15.27
2022-12-16T11:23:46.864Z,14.70
2022-12-16T11:26:31.752Z,14.20
2022-12-16T11:29:31.645Z,13.87
2022-12-16T11:32:14.009Z,15.17
2022-12-16T11:34:53.265Z,13.23
2022-12-16T11:37:32.474Z,13.77
2022-12-16T11:40:12.833Z,14.47
2022-12-16T11:42:51.644Z,14.17
2022-12-16T11:45:32.385Z,14.07
2022-12-16T11:48:13.372Z,15.53
2022-12-16T11:50:53.305Z,13.90
2022-12-16T11:53:49.777Z,14.20
2022-12-16T11:56:31.435Z,14.37
2022-12-16T11:59:14.755Z,55.33
2022-12-16T12:01:55.623Z,13.40
2022-12-16T12:04:34.961Z,14.33
2022-12-16T12:07:23.766Z,13.80
2022-12-16T12:10:07.214Z,13.63
2022-12-16T12:12:50.449Z,27.70
2022-12-16T12:15:33.685Z,14.00
2022-12-16T12:18:16.243Z,13.37
2022-12-16T12:21:01.309Z,13.60
2022-12-16T12:23:42.522Z,14.67
2022-12-16T12:26:24.166Z,17.00
2022-12-16T12:29:09.316Z,13.77
2022-12-16T12:31:53.866Z,24.87
2022-12-16T12:34:41.077Z,15.30
2022-12-16T12:37:24.908Z,13.20
2022-12-16T12:40:05.370Z,13.27
2022-12-16T12:42:54.935Z,13.07
2022-12-16T12:45:49.754Z,12.50
2022-12-16T12:48:32.079Z,12.13
2022-12-16T12:51:15.445Z,13.30
2022-12-16T12:54:00.751Z,12.93
2022-12-16T12:56:44.321Z,14.23
2022-12-16T12:59:25.360Z,12.70
2022-12-16T13:02:05.750Z,13.30
2022-12-16T13:04:46.351Z,13.37
2022-12-16T13:07:25.852Z,12.77
2022-12-16T13:10:04.773Z,13.17
2022-12-16T13:12:48.126Z,12.13
2022-12-16T13:15:27.523Z,12.67
2022-12-16T13:18:25.396Z,12.33
2022-12-16T13:21:06.545Z,11.80
2022-12-16T13:23:49.262Z,13.07
2022-12-16T13:26:28.238Z,11.73
2022-12-16T13:29:21.477Z,11.67
2022-12-16T13:32:17.935Z,12.13
2022-12-16T13:34:57.231Z,12.63
2022-12-16T13:37:41.443Z,12.40
2022-12-16T13:40:23.151Z,13.20
2022-12-16T13:43:09.698Z,14.27
2022-12-16T13:45:50.097Z,13.43
2022-12-16T13:48:44.105Z,12.60
2022-12-16T13:51:23.958Z,12.87
2022-12-16T13:54:06.147Z,12.90
2022-12-16T13:56:47.460Z,12.50
2022-12-16T13:59:32.714Z,13.13
2022-12-16T14:02:12.695Z,13.40
2022-12-16T14:04:53.041Z,14.70
2022-12-16T14:07:32.479Z,14.47
2022-12-16T14:10:12.851Z,14.27
2022-12-16T14:13:00.827Z,15.13
2022-12-16T14:15:42.853Z,14.83
2022-12-16T14:18:25.116Z,15.00
2022-12-16T14:21:06.862Z,13.80
2022-12-16T14:23:57.767Z,14.53
2022-12-16T14:26:38.358Z,14.13
2022-12-16T14:29:19.142Z,13.67
2022-12-16T14:32:10.363Z,13.73
2022-12-16T14:34:51.114Z,14.03
2022-12-16T14:37:33.740Z,13.67
2022-12-16T14:40:12.594Z,13.93
2022-12-16T14:42:52.647Z,13.73
2022-12-16T14:45:43.539Z,14.30
2022-12-16T14:48:31.977Z,14.10
2022-12-16T14:51:10.996Z,14.10
2022-12-16T14:53:50.330Z,13.53
2022-12-16T14:56:33.901Z,14.33
2022-12-16T14:59:26.321Z,15.63
2022-12-16T15:02:05.817Z,16.57
2022-12-16T15:04:45.059Z,15.30
2022-12-16T15:07:31.490Z,17.17
2022-12-16T15:10:11.874Z,13.90
2022-12-16T15:12:53.702Z,13.17
2022-12-16T15:15:38.416Z,15.00
2022-12-16T15:18:18.743Z,14.67
2022-12-16T15:21:03.465Z,15.23
2022-12-16T15:23:43.537Z,14.17
2022-12-16T15:26:22.464Z,39.07
2022-12-16T15:29:10.513Z,18.33
2022-12-16T15:31:52.173Z,18.93
2022-12-16T15:34:45.473Z,19.23
2022-12-16T15:37:32.484Z,25.57
2022-12-16T15:40:11.583Z,21.10
2022-12-16T15:42:51.643Z,14.30
2022-12-16T15:45:38.614Z,14.07
2022-12-16T15:48:25.993Z,15.30
2022-12-16T15:51:10.892Z,16.17
2022-12-16T15:53:51.449Z,17.40
2022-12-16T15:56:35.114Z,16.83
2022-12-16T15:59:31.304Z,16.50
2022-12-16T16:02:10.324Z,16.03
2022-12-16T16:04:50.464Z,16.07
2022-12-16T16:07:30.726Z,20.57
2022-12-16T16:10:09.758Z,15.07
2022-12-16T16:12:48.762Z,14.30
2022-12-16T16:15:28.821Z,14.07
2022-12-16T16:18:08.409Z,14.90
2022-12-16T16:20:48.575Z,14.67
2022-12-16T16:23:27.593Z,14.47
2022-12-16T16:26:06.988Z,15.07
2022-12-16T16:28:46.031Z,13.40
2022-12-16T16:31:26.677Z,13.10
2022-12-16T16:34:05.682Z,14.70
2022-12-16T16:36:46.077Z,14.97
2022-12-16T16:39:24.957Z,14.53
2022-12-16T16:42:03.938Z,16.00
2022-12-16T16:44:42.744Z,15.20
2022-12-16T16:47:27.000Z,14.47
2022-12-16T16:50:05.926Z,14.37
2022-12-16T16:52:46.187Z,13.93
2022-12-16T16:55:26.097Z,13.43
2022-12-16T16:58:05.227Z,13.10
2022-12-16T17:00:44.294Z,13.43
2022-12-16T17:03:23.390Z,13.43
2022-12-16T17:06:02.557Z,13.87
2022-12-16T17:08:43.055Z,13.20
2022-12-16T17:11:22.042Z,13.63
2022-12-16T17:14:00.858Z,13.60
2022-12-16T17:16:39.911Z,13.23
2022-12-16T17:19:18.922Z,13.30
2022-12-16T17:21:57.716Z,13.93
2022-12-16T17:24:40.759Z,14.10
2022-12-16T17:27:32.089Z,14.13
2022-12-16T17:30:10.985Z,14.23
2022-12-16T17:32:49.756Z,13.87
2022-12-16T17:35:29.972Z,15.00
2022-12-16T17:38:09.811Z,15.23
2022-12-16T17:40:50.154Z,15.07
2022-12-16T17:43:29.044Z,15.03
2022-12-16T17:46:14.723Z,14.23
2022-12-16T17:48:53.750Z,14.10
2022-12-16T17:51:32.705Z,14.47
2022-12-16T17:54:19.663Z,14.33
2022-12-16T17:57:02.967Z,14.07
2022-12-16T17:59:41.706Z,14.83
2022-12-16T18:02:20.672Z,15.40
2022-12-16T18:04:59.670Z,15.00
2022-12-16T18:07:38.592Z,15.70
2022-12-16T18:10:17.195Z,14.50
2022-12-16T18:12:57.291Z,15.80
2022-12-16T18:15:36.060Z,14.20
2022-12-16T18:18:15.327Z,15.20
2022-12-16T18:20:54.168Z,15.33
2022-12-16T18:23:33.763Z,14.80
2022-12-16T18:26:16.589Z,15.83
2022-12-16T18:28:53.156Z,15.83
2022-12-16T18:31:31.558Z,15.90
2022-12-16T18:34:10.532Z,17.13
2022-12-16T18:36:49.451Z,17.40
2022-12-16T18:39:28.773Z,15.47
2022-12-16T18:42:07.537Z,14.53
2022-12-16T18:44:57.558Z,16.03
2022-12-16T18:47:39.333Z,16.73
2022-12-16T18:50:23.698Z,15.17
2022-12-16T18:53:06.174Z,17.27
2022-12-16T18:55:45.091Z,18.30
2022-12-16T19:01:25.730Z,19.43
2022-12-16T19:04:04.635Z,16.87
2022-12-16T19:06:43.684Z,16.60
2022-12-16T19:09:22.538Z,16.03
2022-12-16T19:12:01.544Z,16.07
2022-12-16T19:14:40.097Z,15.80
2022-12-16T19:17:20.000Z,17.33
2022-12-16T19:19:58.941Z,17.87
2022-12-16T19:22:37.875Z,17.20
2022-12-16T19:25:16.756Z,18.53
2022-12-16T19:27:56.467Z,16.87
2022-12-16T19:30:35.305Z,18.90
2022-12-16T19:33:15.837Z,18.40
2022-12-16T19:35:54.731Z,19.73
2022-12-16T19:38:35.757Z,19.03
2022-12-16T19:41:14.503Z,19.40
2022-12-16T19:43:56.685Z,18.30
2022-12-16T19:46:39.369Z,17.10
2022-12-16T19:49:19.755Z,20.07
2022-12-16T19:51:58.419Z,17.63
2022-12-16T19:54:37.626Z,18.57
2022-12-16T19:57:16.639Z,17.93
2022-12-16T19:59:55.695Z,17.03
2022-12-16T20:02:34.611Z,18.80
2022-12-16T20:05:15.194Z,18.27
2022-12-16T20:10:54.907Z,17.83
2022-12-16T20:13:35.241Z,16.17
2022-12-16T20:16:19.003Z,17.20
2022-12-16T20:18:58.109Z,18.43
2022-12-16T20:21:40.203Z,18.23
2022-12-16T20:24:19.069Z,18.20
2022-12-16T20:26:57.925Z,18.47
2022-12-16T20:29:36.963Z,19.93
2022-12-16T20:32:15.640Z,19.33
2022-12-16T20:34:51.727Z,18.53
2022-12-16T20:37:31.426Z,18.17
2022-12-16T20:40:10.486Z,17.70
2022-12-16T20:42:45.675Z,17.97
2022-12-16T20:45:25.266Z,18.73
2022-12-16T20:48:15.524Z,18.50
2022-12-16T20:50:56.035Z,18.90
2022-12-16T20:53:36.519Z,19.10
2022-12-16T20:56:33.384Z,18.13
2022-12-16T20:59:12.327Z,18.83
2022-12-16T21:04:49.553Z,18.83
2022-12-16T21:07:28.303Z,19.63
2022-12-16T21:10:08.627Z,18.57
2022-12-16T21:12:48.149Z,18.60
2022-12-16T21:15:27.603Z,19.27
2022-12-16T21:18:06.306Z,18.50
2022-12-16T21:20:45.064Z,18.33
2022-12-16T21:23:24.827Z,18.80
2022-12-16T21:26:04.873Z,20.80
2022-12-16T21:28:43.784Z,20.80
2022-12-16T21:31:22.590Z,21.70
2022-12-16T21:34:01.344Z,21.07
2022-12-16T21:36:39.990Z,23.03
2022-12-16T21:39:19.063Z,21.23
2022-12-16T21:41:58.932Z,21.00
2022-12-16T21:44:37.258Z,21.47
2022-12-16T21:47:16.019Z,20.80
2022-12-16T21:49:56.151Z,21.57
2022-12-16T21:52:35.591Z,26.73
2022-12-16T21:55:14.556Z,33.73
2022-12-16T21:57:54.884Z,25.10
2022-12-16T22:00:35.086Z,20.80
2022-12-16T22:03:14.131Z,21.60
2022-12-16T22:05:53.457Z,20.07
2022-12-16T22:08:35.165Z,19.07
2022-12-16T22:11:14.033Z,19.93
2022-12-16T22:13:54.158Z,18.43
2022-12-16T22:16:35.415Z,19.67
2022-12-16T22:19:14.390Z,19.90
2022-12-16T22:21:53.158Z,19.30
2022-12-16T22:24:31.963Z,19.07
2022-12-16T22:27:10.754Z,18.07
2022-12-16T22:29:51.086Z,19.23
2022-12-16T22:32:30.574Z,19.27
2022-12-16T22:35:09.566Z,18.20
2022-12-16T22:37:48.457Z,19.60
2022-12-16T22:40:27.723Z,18.43
2022-12-16T22:43:06.772Z,18.83
2022-12-16T22:45:46.011Z,18.40
2022-12-16T22:48:24.809Z,18.67
2022-12-16T22:51:03.648Z,18.50
2022-12-16T22:53:42.899Z,19.23
2022-12-16T22:56:22.045Z,19.40
2022-12-16T22:59:00.285Z,19.30
2022-12-16T23:01:40.472Z,20.03
2022-12-16T23:04:19.298Z,18.57
2022-12-16T23:06:58.385Z,18.73
2022-12-16T23:09:37.287Z,18.50
2022-12-16T23:12:16.255Z,18.17
2022-12-16T23:14:56.670Z,18.20
2022-12-16T23:17:36.743Z,18.40
2022-12-16T23:20:15.534Z,18.90
2022-12-16T23:22:54.313Z,19.10
2022-12-16T23:25:34.806Z,18.43
2022-12-16T23:28:13.832Z,18.83
2022-12-16T23:30:52.597Z,18.77
2022-12-16T23:32:31.418Z,17.90
2022-12-16T23:33:34.413Z,19.00
2022-12-16T23:36:13.216Z,19.07
2022-12-16T23:38:53.330Z,18.70
2022-12-16T23:41:32.282Z,19.53
2022-12-16T23:44:11.120Z,19.10
2022-12-16T23:46:49.926Z,19.40
2022-12-16T23:49:30.159Z,19.47
2022-12-16T23:52:09.255Z,19.97
2022-12-16T23:54:53.964Z,19.33
2022-12-16T23:57:34.697Z,18.93
